createdAt,value
2019-05-12T00:00:58.533Z,82.18
2019-05-12T00:01:58.746Z,82.22
2019-05-12T00:02:59.119Z,82.37
2019-05-12T00:03:58.108Z,82.18
2019-05-12T00:04:58.265Z,82.18
2019-05-12T00:05:57.774Z,82.18
2019-05-12T00:06:58.571Z,82.28
2019-05-12T00:07:58.354Z,82.18
2019-05-12T00:08:57.952Z,82.18
2019-05-12T00:09:58.186Z,82.18
2019-05-12T00:10:58.290Z,82.28
2019-05-12T00:11:56.247Z,81.99
2019-05-12T00:12:58.221Z,82.18
2019-05-12T00:13:58.402Z,82.18
2019-05-12T00:14:56.123Z,82.18
2019-05-12T00:15:57.794Z,81.99
2019-05-12T00:16:57.992Z,82.37
2019-05-12T00:17:58.397Z,82.28
2019-05-12T00:18:58.383Z,81.51
2019-05-12T00:19:58.357Z,81.70
2019-05-12T00:20:57.799Z,81.89
2019-05-12T00:21:55.769Z,81.89
2019-05-12T00:22:58.033Z,81.79
2019-05-12T00:23:58.059Z,81.89
2019-05-12T00:24:55.531Z,81.60
2019-05-12T00:25:55.530Z,81.79
2019-05-12T00:26:55.412Z,81.79
2019-05-12T00:27:55.409Z,81.99
2019-05-12T00:28:55.294Z,81.89
2019-05-12T00:29:57.733Z,81.32
2019-05-12T00:30:55.180Z,81.51
2019-05-12T00:31:55.172Z,81.99
2019-05-12T00:32:55.172Z,81.60
2019-05-12T00:33:55.054Z,81.99
2019-05-12T00:34:55.053Z,82.28
2019-05-12T00:35:54.935Z,82.08
2019-05-12T00:36:54.933Z,81.79
2019-05-12T00:37:54.818Z,81.89
2019-05-12T00:38:54.815Z,81.89
2019-05-12T00:39:54.698Z,82.08
2019-05-12T00:40:54.696Z,81.51
2019-05-12T00:41:54.580Z,81.60
2019-05-12T00:42:54.577Z,81.60
2019-05-12T00:43:54.461Z,81.60
2019-05-12T00:44:54.459Z,81.60
2019-05-12T00:45:54.458Z,81.60
2019-05-12T00:46:54.342Z,81.60
2019-05-12T00:47:54.376Z,81.79
2019-05-12T00:48:54.222Z,81.60
2019-05-12T00:49:54.220Z,81.60
2019-05-12T00:50:54.103Z,81.60
2019-05-12T00:51:54.103Z,81.60
2019-05-12T00:52:53.985Z,81.60
2019-05-12T00:53:53.982Z,81.79
2019-05-12T00:54:53.866Z,81.70
2019-05-12T00:55:53.863Z,81.60
2019-05-12T00:56:53.785Z,81.60
2019-05-12T00:57:53.744Z,81.60
2019-05-12T00:58:53.629Z,81.60
2019-05-12T00:59:53.626Z,81.79
2019-05-12T01:00:53.626Z,81.41
2019-05-12T01:01:53.509Z,81.41
2019-05-12T01:02:53.507Z,81.60
2019-05-12T01:03:53.389Z,81.60
2019-05-12T01:04:53.387Z,81.51
2019-05-12T01:05:53.272Z,81.60
2019-05-12T01:06:53.268Z,81.60
2019-05-12T01:07:53.152Z,81.60
2019-05-12T01:08:53.150Z,81.70
2019-05-12T01:09:53.034Z,81.60
2019-05-12T01:10:53.032Z,81.70
2019-05-12T01:11:52.916Z,81.60
2019-05-12T01:12:52.912Z,81.60
2019-05-12T01:13:52.796Z,81.60
2019-05-12T01:14:52.793Z,81.79
2019-05-12T01:15:52.794Z,81.89
2019-05-12T01:16:52.675Z,81.79
2019-05-12T01:17:52.673Z,81.89
2019-05-12T01:18:52.556Z,81.99
2019-05-12T01:19:52.556Z,81.89
2019-05-12T01:20:52.438Z,81.89
2019-05-12T01:21:52.436Z,82.08
2019-05-12T01:22:52.320Z,81.89
2019-05-12T01:23:57.136Z,81.79
2019-05-12T01:24:52.200Z,81.70
2019-05-12T01:25:52.200Z,82.08
2019-05-12T01:26:52.081Z,82.08
2019-05-12T01:27:52.079Z,81.51
2019-05-12T01:28:52.080Z,82.28
2019-05-12T01:29:51.961Z,81.51
2019-05-12T01:30:51.960Z,82.08
2019-05-12T01:31:51.845Z,81.60
2019-05-12T01:32:51.844Z,81.41
2019-05-12T01:33:51.724Z,81.89
2019-05-12T01:34:51.722Z,81.89
2019-05-12T01:35:51.605Z,81.32
2019-05-12T01:36:51.603Z,81.99
2019-05-12T01:37:51.491Z,81.60
2019-05-12T01:38:51.485Z,81.79
2019-05-12T01:39:51.379Z,81.99
2019-05-12T01:40:51.367Z,81.79
2019-05-12T01:41:51.250Z,81.99
2019-05-12T01:42:51.247Z,81.89
2019-05-12T01:43:51.251Z,81.79
2019-05-12T01:44:51.130Z,81.99
2019-05-12T01:45:51.130Z,81.70
2019-05-12T01:46:51.009Z,82.08
2019-05-12T01:47:51.009Z,82.08
2019-05-12T01:48:50.891Z,82.08
2019-05-12T01:49:50.890Z,82.18
2019-05-12T01:50:50.774Z,81.99
2019-05-12T01:51:50.771Z,82.18
2019-05-12T01:52:50.657Z,82.08
2019-05-12T01:53:50.657Z,82.08
2019-05-12T01:54:50.535Z,82.18
2019-05-12T01:55:50.531Z,82.08
2019-05-12T01:56:50.419Z,82.08
2019-05-12T01:57:50.413Z,82.18
2019-05-12T01:58:50.416Z,82.18
2019-05-12T01:59:50.296Z,82.18
2019-05-12T02:00:50.296Z,81.99
2019-05-12T02:01:50.178Z,82.08
2019-05-12T02:02:50.176Z,82.08
2019-05-12T02:03:50.060Z,81.79
2019-05-12T02:04:50.057Z,81.99
2019-05-12T02:05:49.940Z,81.99
2019-05-12T02:06:49.939Z,81.99
2019-05-12T02:07:49.821Z,81.70
2019-05-12T02:08:49.819Z,81.99
2019-05-12T02:09:49.702Z,82.18
2019-05-12T02:10:49.701Z,81.99
2019-05-12T02:11:49.584Z,81.99
2019-05-12T02:12:49.581Z,82.08
2019-05-12T02:13:49.581Z,81.79
2019-05-12T02:14:49.464Z,82.37
2019-05-12T02:15:49.462Z,82.46
2019-05-12T02:16:49.345Z,81.89
2019-05-12T02:17:49.346Z,81.99
2019-05-12T02:18:49.245Z,82.75
2019-05-12T02:19:49.224Z,82.37
2019-05-12T02:20:49.108Z,82.37
2019-05-12T02:21:49.105Z,82.46
2019-05-12T02:22:48.989Z,82.46
2019-05-12T02:23:48.986Z,82.56
2019-05-12T02:24:48.872Z,82.37
2019-05-12T02:25:48.867Z,82.56
2019-05-12T02:26:48.849Z,82.37
2019-05-12T02:27:48.749Z,82.46
2019-05-12T02:28:48.749Z,82.37
2019-05-12T02:29:48.631Z,82.28
2019-05-12T02:30:50.162Z,82.46
2019-05-12T02:31:50.049Z,82.46
2019-05-12T02:32:53.547Z,82.37
2019-05-12T02:33:48.399Z,82.65
2019-05-12T02:34:48.392Z,82.37
2019-05-12T02:35:48.277Z,82.28
2019-05-12T02:36:48.274Z,82.37
2019-05-12T02:37:48.156Z,82.37
2019-05-12T02:38:48.154Z,82.94
2019-05-12T02:39:48.038Z,82.46
2019-05-12T02:40:48.036Z,82.56
2019-05-12T02:41:47.919Z,82.46
2019-05-12T02:42:47.916Z,82.56
2019-05-12T02:43:47.918Z,82.56
2019-05-12T02:44:47.802Z,82.37
2019-05-12T02:45:47.797Z,82.56
2019-05-12T02:46:47.681Z,82.75
2019-05-12T02:47:47.679Z,82.46
2019-05-12T02:48:47.563Z,82.46
2019-05-12T02:49:47.560Z,82.28
2019-05-12T02:50:47.446Z,82.18
2019-05-12T02:51:47.450Z,81.89
2019-05-12T02:52:47.323Z,81.79
2019-05-12T02:53:47.527Z,81.79
2019-05-12T02:54:55.654Z,82.18
2019-05-12T02:55:47.203Z,81.99
2019-05-12T02:56:47.087Z,82.28
2019-05-12T02:57:47.083Z,82.18
2019-05-12T02:58:47.083Z,82.18
2019-05-12T02:59:46.966Z,82.18
2019-05-12T03:00:46.968Z,82.18
2019-05-12T03:01:46.850Z,82.28
2019-05-12T03:02:46.846Z,81.99
2019-05-12T03:03:46.730Z,82.18
2019-05-12T03:04:46.733Z,82.37
2019-05-12T03:05:46.616Z,81.99
2019-05-12T03:06:46.610Z,81.99
2019-05-12T03:07:46.516Z,81.99
2019-05-12T03:08:46.489Z,81.99
2019-05-12T03:09:46.372Z,81.99
2019-05-12T03:10:46.376Z,82.08
2019-05-12T03:11:46.407Z,82.18
2019-05-12T03:12:46.251Z,82.08
2019-05-12T03:13:46.252Z,82.08
2019-05-12T03:14:46.133Z,82.18
2019-05-12T03:15:46.132Z,81.79
2019-05-12T03:16:46.018Z,81.70
2019-05-12T03:17:46.015Z,81.99
2019-05-12T03:18:45.907Z,82.18
2019-05-12T03:19:45.894Z,82.18
2019-05-12T03:20:45.813Z,82.08
2019-05-12T03:21:45.783Z,81.89
2019-05-12T03:22:45.657Z,82.28
2019-05-12T03:23:45.656Z,82.28
2019-05-12T03:24:45.541Z,82.56
2019-05-12T03:25:45.821Z,82.28
2019-05-12T03:26:45.428Z,82.56
2019-05-12T03:27:45.419Z,82.75
2019-05-12T03:28:45.418Z,82.28
2019-05-12T03:29:45.300Z,82.56
2019-05-12T03:30:48.430Z,82.52
2019-05-12T03:31:48.585Z,82.65
2019-05-12T03:32:47.473Z,82.56
2019-05-12T03:33:51.942Z,82.56
2019-05-12T03:34:47.301Z,82.56
2019-05-12T03:35:52.164Z,82.52
2019-05-12T03:36:50.616Z,82.71
2019-05-12T03:37:45.362Z,82.56
2019-05-12T03:38:45.076Z,82.46
2019-05-12T03:39:44.890Z,82.46
2019-05-12T03:40:45.313Z,82.28
2019-05-12T03:41:44.845Z,82.56
2019-05-12T03:42:44.646Z,81.95
2019-05-12T03:43:45.034Z,82.46
2019-05-12T03:44:44.650Z,82.08
2019-05-12T03:45:45.210Z,82.46
2019-05-12T03:46:45.584Z,82.61
2019-05-12T03:47:45.534Z,82.65
2019-05-12T03:48:45.399Z,82.56
2019-05-12T03:49:45.470Z,82.37
2019-05-12T03:50:46.067Z,82.52
2019-05-12T03:51:45.697Z,82.61
2019-05-12T03:52:44.993Z,82.71
2019-05-12T03:53:45.416Z,82.75
2019-05-12T03:54:45.198Z,82.61
2019-05-12T03:55:46.860Z,82.56
2019-05-12T03:56:45.066Z,82.61
2019-05-12T03:57:45.068Z,82.32
2019-05-12T03:58:45.256Z,82.65
2019-05-12T03:59:44.951Z,82.32
2019-05-12T04:00:44.702Z,82.32
2019-05-12T04:01:45.082Z,82.04
2019-05-12T04:02:45.462Z,82.42
2019-05-12T04:03:45.062Z,82.42
2019-05-12T04:04:45.269Z,82.61
2019-05-12T04:05:45.311Z,82.61
2019-05-12T04:06:45.321Z,82.56
2019-05-12T04:07:45.025Z,82.46
2019-05-12T04:08:45.617Z,82.42
2019-05-12T04:09:45.079Z,82.42
2019-05-12T04:10:45.339Z,82.32
2019-05-12T04:11:44.416Z,82.37
2019-05-12T04:12:44.851Z,82.52
2019-05-12T04:13:45.129Z,82.32
2019-05-12T04:14:44.879Z,82.61
2019-05-12T04:15:45.547Z,82.52
2019-05-12T04:16:45.208Z,82.52
2019-05-12T04:17:45.179Z,82.61
2019-05-12T04:18:45.047Z,82.61
2019-05-12T04:19:44.782Z,82.65
2019-05-12T04:20:45.085Z,82.42
2019-05-12T04:21:44.655Z,82.42
2019-05-12T04:22:44.700Z,82.56
2019-05-12T04:23:44.370Z,82.42
2019-05-12T04:24:44.580Z,82.52
2019-05-12T04:25:51.916Z,82.32
2019-05-12T04:26:45.001Z,81.95
2019-05-12T04:27:44.826Z,82.23
2019-05-12T04:28:45.343Z,81.95
2019-05-12T04:29:44.162Z,82.61
2019-05-12T04:30:44.482Z,82.14
2019-05-12T04:31:44.279Z,82.14
2019-05-12T04:32:44.829Z,81.95
2019-05-12T04:33:44.994Z,81.95
2019-05-12T04:34:44.536Z,82.14
2019-05-12T04:35:44.919Z,81.95
2019-05-12T04:36:44.648Z,81.95
2019-05-12T04:37:44.676Z,81.95
2019-05-12T04:38:44.678Z,81.76
2019-05-12T04:39:44.540Z,81.95
2019-05-12T04:40:44.694Z,81.95
2019-05-12T04:41:44.490Z,81.85
2019-05-12T04:42:44.876Z,81.95
2019-05-12T04:43:44.525Z,81.66
2019-05-12T04:44:41.134Z,82.14
2019-05-12T04:45:41.141Z,81.95
2019-05-12T04:46:41.018Z,81.95
2019-05-12T04:47:41.054Z,81.95
2019-05-12T04:48:40.900Z,82.23
2019-05-12T04:49:40.897Z,81.95
2019-05-12T04:50:40.780Z,81.95
2019-05-12T04:51:40.779Z,81.95
2019-05-12T04:52:40.665Z,81.95
2019-05-12T04:53:40.660Z,82.14
2019-05-12T04:54:40.544Z,82.14
2019-05-12T04:55:40.541Z,82.04
2019-05-12T04:56:40.430Z,81.95
2019-05-12T04:57:40.422Z,82.04
2019-05-12T04:58:40.307Z,82.14
2019-05-12T04:59:40.302Z,82.14
2019-05-12T05:00:40.304Z,81.95
2019-05-12T05:01:40.182Z,82.04
2019-05-12T05:02:40.227Z,82.14
2019-05-12T05:03:40.068Z,82.32
2019-05-12T05:04:40.064Z,81.95
2019-05-12T05:05:39.947Z,82.32
2019-05-12T05:06:39.946Z,82.04
2019-05-12T05:07:39.833Z,82.32
2019-05-12T05:08:39.826Z,82.04
2019-05-12T05:09:39.711Z,82.23
2019-05-12T05:10:39.707Z,82.23
2019-05-12T05:11:39.592Z,82.14
2019-05-12T05:12:39.588Z,82.23
2019-05-12T05:13:39.921Z,82.04
2019-05-12T05:14:39.474Z,82.23
2019-05-12T05:15:39.353Z,82.23
2019-05-12T05:16:39.351Z,82.23
2019-05-12T05:17:39.354Z,81.95
2019-05-12T05:18:40.918Z,82.04
2019-05-12T05:19:39.232Z,81.56
2019-05-12T05:20:39.115Z,81.76
2019-05-12T05:21:39.112Z,81.95
2019-05-12T05:22:38.996Z,81.76
2019-05-12T05:23:38.994Z,82.23
2019-05-12T05:24:38.877Z,81.85
2019-05-12T05:25:38.875Z,81.76
2019-05-12T05:26:38.758Z,81.85
2019-05-12T05:27:38.755Z,81.56
2019-05-12T05:28:38.639Z,81.95
2019-05-12T05:29:38.637Z,81.18
2019-05-12T05:30:38.526Z,82.04
2019-05-12T05:31:38.517Z,81.76
2019-05-12T05:32:38.518Z,81.66
2019-05-12T05:33:38.402Z,81.56
2019-05-12T05:34:38.400Z,81.95
2019-05-12T05:35:39.831Z,82.23
2019-05-12T05:36:38.281Z,82.04
2019-05-12T05:37:41.433Z,81.56
2019-05-12T05:38:38.165Z,81.47
2019-05-12T05:39:47.915Z,81.76
2019-05-12T05:40:38.042Z,81.47
2019-05-12T05:41:40.195Z,81.95
2019-05-12T05:42:37.922Z,81.47
2019-05-12T05:43:37.807Z,81.47
2019-05-12T05:44:38.191Z,82.23
2019-05-12T05:45:37.688Z,81.85
2019-05-12T05:46:39.190Z,82.14
2019-05-12T05:47:37.574Z,82.23
2019-05-12T05:48:37.567Z,81.85
2019-05-12T05:49:37.566Z,81.76
2019-05-12T05:50:37.448Z,82.14
2019-05-12T05:51:39.622Z,81.66
2019-05-12T05:52:38.731Z,81.66
2019-05-12T05:53:37.328Z,81.76
2019-05-12T05:54:39.955Z,82.04
2019-05-12T05:55:37.211Z,81.95
2019-05-12T05:56:42.611Z,81.85
2019-05-12T05:57:37.090Z,81.85
2019-05-12T05:58:40.269Z,81.76
2019-05-12T05:59:37.064Z,81.85
2019-05-12T06:00:39.347Z,81.76
2019-05-12T06:01:40.098Z,81.85
2019-05-12T06:02:40.300Z,81.85
2019-05-12T06:03:36.734Z,82.14
2019-05-12T06:04:39.178Z,81.95
2019-05-12T06:05:38.537Z,81.95
2019-05-12T06:06:36.617Z,81.95
2019-05-12T06:07:39.092Z,81.66
2019-05-12T06:08:36.501Z,81.95
2019-05-12T06:09:36.377Z,81.76
2019-05-12T06:10:40.359Z,81.56
2019-05-12T06:11:36.268Z,81.56
2019-05-12T06:12:40.487Z,81.85
2019-05-12T06:13:36.141Z,81.56
2019-05-12T06:14:36.139Z,81.56
2019-05-12T06:15:40.646Z,81.56
2019-05-12T06:16:36.022Z,81.66
2019-05-12T06:17:35.903Z,81.56
2019-05-12T06:18:35.901Z,81.47
2019-05-12T06:19:35.784Z,81.66
2019-05-12T06:20:38.212Z,81.56
2019-05-12T06:21:38.209Z,81.47
2019-05-12T06:22:35.663Z,81.47
2019-05-12T06:23:39.153Z,81.56
2019-05-12T06:24:35.545Z,81.76
2019-05-12T06:25:46.413Z,81.85
2019-05-12T06:26:35.915Z,81.56
2019-05-12T06:27:35.945Z,81.56
2019-05-12T06:28:39.351Z,81.85
2019-05-12T06:29:35.306Z,81.76
2019-05-12T06:30:43.935Z,81.85
2019-05-12T06:31:35.187Z,81.66
2019-05-12T06:32:35.074Z,81.66
2019-05-12T06:33:36.214Z,81.47
2019-05-12T06:34:34.952Z,81.66
2019-05-12T06:35:40.805Z,81.56
2019-05-12T06:36:34.832Z,81.76
2019-05-12T06:37:34.830Z,81.66
2019-05-12T06:38:38.703Z,81.85
2019-05-12T06:39:34.711Z,81.66
2019-05-12T06:40:41.065Z,81.56
2019-05-12T06:41:34.593Z,81.37
2019-05-12T06:42:34.595Z,81.76
2019-05-12T06:43:38.357Z,81.66
2019-05-12T06:44:34.473Z,81.56
2019-05-12T06:45:42.039Z,81.76
2019-05-12T06:46:34.384Z,81.37
2019-05-12T06:47:34.463Z,81.56
2019-05-12T06:48:34.234Z,80.90
2019-05-12T06:49:34.122Z,80.90
2019-05-12T06:50:38.973Z,81.18
2019-05-12T06:51:34.104Z,80.90
2019-05-12T06:52:38.664Z,81.18
2019-05-12T06:53:33.881Z,81.18
2019-05-12T06:54:33.878Z,81.27
2019-05-12T06:55:38.829Z,81.09
2019-05-12T06:56:34.346Z,81.18
2019-05-12T06:57:34.361Z,81.18
2019-05-12T06:58:34.424Z,80.80
2019-05-12T06:59:33.935Z,81.66
2019-05-12T07:00:35.048Z,81.66
2019-05-12T07:01:33.622Z,81.56
2019-05-12T07:02:36.250Z,81.56
2019-05-12T07:03:36.843Z,81.56
2019-05-12T07:04:33.951Z,81.66
2019-05-12T07:05:38.016Z,81.56
2019-05-12T07:06:33.878Z,80.90
2019-05-12T07:07:41.727Z,81.18
2019-05-12T07:08:38.244Z,80.70
2019-05-12T07:09:35.363Z,80.41
2019-05-12T07:10:42.158Z,80.70
2019-05-12T07:11:42.557Z,80.99
2019-05-12T07:12:43.506Z,80.99
2019-05-12T07:13:34.221Z,80.90
2019-05-12T07:14:34.518Z,80.90
2019-05-12T07:15:35.709Z,80.80
2019-05-12T07:16:34.121Z,80.80
2019-05-12T07:17:35.650Z,80.90
2019-05-12T07:18:36.991Z,80.80
2019-05-12T07:19:33.727Z,80.70
2019-05-12T07:20:35.343Z,80.70
2019-05-12T07:21:33.534Z,80.61
2019-05-12T07:22:43.812Z,80.61
2019-05-12T07:23:33.732Z,81.09
2019-05-12T07:24:34.057Z,80.51
2019-05-12T07:25:36.285Z,80.70
2019-05-12T07:26:33.889Z,80.90
2019-05-12T07:27:36.691Z,80.61
2019-05-12T07:28:36.279Z,80.80
2019-05-12T07:29:33.830Z,80.80
2019-05-12T07:30:34.832Z,80.90
2019-05-12T07:31:33.666Z,80.80
2019-05-12T07:32:34.240Z,80.80
2019-05-12T07:33:35.269Z,80.70
2019-05-12T07:34:33.408Z,80.80
2019-05-12T07:35:33.688Z,80.22
2019-05-12T07:36:33.350Z,80.61
2019-05-12T07:37:31.499Z,80.32
2019-05-12T07:38:31.384Z,80.04
2019-05-12T07:39:31.382Z,80.22
2019-05-12T07:40:34.688Z,80.04
2019-05-12T07:41:31.261Z,80.22
2019-05-12T07:42:38.925Z,80.22
2019-05-12T07:43:33.649Z,80.41
2019-05-12T07:44:34.407Z,80.51
2019-05-12T07:45:31.022Z,79.85
2019-05-12T07:46:31.023Z,79.56
2019-05-12T07:47:33.039Z,79.94
2019-05-12T07:48:33.256Z,79.56
2019-05-12T07:49:36.900Z,80.04
2019-05-12T07:50:30.786Z,79.75
2019-05-12T07:51:38.350Z,79.94
2019-05-12T07:52:30.667Z,79.94
2019-05-12T07:53:30.551Z,79.46
2019-05-12T07:54:37.299Z,79.08
2019-05-12T07:55:30.431Z,78.99
2019-05-12T07:56:32.748Z,79.27
2019-05-12T07:57:30.312Z,79.17
2019-05-12T07:58:30.311Z,79.27
2019-05-12T07:59:38.843Z,79.36
2019-05-12T08:00:30.190Z,79.27
2019-05-12T08:01:30.078Z,79.27
2019-05-12T08:02:31.845Z,79.27
2019-05-12T08:03:30.073Z,78.89
2019-05-12T08:04:31.596Z,78.99
2019-05-12T08:05:57.344Z,78.99
2019-05-12T08:06:32.534Z,78.70
2019-05-12T08:07:30.157Z,79.08
2019-05-12T08:08:29.716Z,79.08
2019-05-12T08:09:32.289Z,79.08
2019-05-12T08:10:29.597Z,78.99
2019-05-12T08:11:36.642Z,79.17
2019-05-12T08:12:29.478Z,78.99
2019-05-12T08:13:31.263Z,79.08
2019-05-12T08:14:29.596Z,79.17
2019-05-12T08:15:29.357Z,79.17
2019-05-12T08:16:33.658Z,79.27
2019-05-12T08:17:29.238Z,79.08
2019-05-12T08:18:35.662Z,78.99
2019-05-12T08:19:29.119Z,79.17
2019-05-12T08:20:29.121Z,79.36
2019-05-12T08:21:29.003Z,78.70
2019-05-12T08:22:29.469Z,78.60
2019-05-12T08:23:28.883Z,78.51
2019-05-12T08:24:28.882Z,78.60
2019-05-12T08:25:28.989Z,78.79
2019-05-12T08:26:28.763Z,78.51
2019-05-12T08:27:28.672Z,78.60
2019-05-12T08:28:36.195Z,78.70
2019-05-12T08:29:28.528Z,78.51
2019-05-12T08:30:28.525Z,78.79
2019-05-12T08:31:33.151Z,78.89
2019-05-12T08:32:28.408Z,78.70
2019-05-12T08:33:28.289Z,78.89
2019-05-12T08:34:28.288Z,78.99
2019-05-12T08:35:34.611Z,79.08
2019-05-12T08:36:28.168Z,78.99
2019-05-12T08:37:28.168Z,79.17
2019-05-12T08:38:28.058Z,79.27
2019-05-12T08:39:28.050Z,78.99
2019-05-12T08:40:27.939Z,79.17
2019-05-12T08:41:27.929Z,79.36
2019-05-12T08:42:27.813Z,79.36
2019-05-12T08:43:27.811Z,79.27
2019-05-12T08:44:33.389Z,79.17
2019-05-12T08:45:33.991Z,78.89
2019-05-12T08:46:27.576Z,79.17
2019-05-12T08:47:28.961Z,78.99
2019-05-12T08:48:27.463Z,79.27
2019-05-12T08:49:35.866Z,79.17
2019-05-12T08:50:31.669Z,79.17
2019-05-12T08:51:27.334Z,79.46
2019-05-12T08:52:30.697Z,79.27
2019-05-12T08:53:27.216Z,79.46
2019-05-12T08:54:27.232Z,79.46
2019-05-12T08:55:31.247Z,79.36
2019-05-12T08:56:27.097Z,79.17
2019-05-12T08:57:26.980Z,79.08
2019-05-12T08:58:33.935Z,79.27
2019-05-12T08:59:27.521Z,79.08
2019-05-12T09:00:26.859Z,78.89
2019-05-12T09:01:30.678Z,78.79
2019-05-12T09:02:26.740Z,78.79
2019-05-12T09:03:30.326Z,78.79
2019-05-12T09:04:26.621Z,78.70
2019-05-12T09:05:33.596Z,78.60
2019-05-12T09:06:26.503Z,78.51
2019-05-12T09:07:30.292Z,78.51
2019-05-12T09:08:26.383Z,78.60
2019-05-12T09:09:26.269Z,78.41
2019-05-12T09:10:26.264Z,78.70
2019-05-12T09:11:26.264Z,78.70
2019-05-12T09:12:26.147Z,78.70
2019-05-12T09:13:26.146Z,78.51
2019-05-12T09:14:26.028Z,78.99
2019-05-12T09:15:26.027Z,78.60
2019-05-12T09:16:25.912Z,78.79
2019-05-12T09:17:25.956Z,78.60
2019-05-12T09:18:33.471Z,78.79
2019-05-12T09:19:27.260Z,78.99
2019-05-12T09:20:25.672Z,78.79
2019-05-12T09:21:31.565Z,78.79
2019-05-12T09:22:25.552Z,78.99
2019-05-12T09:23:25.551Z,78.79
2019-05-12T09:24:27.377Z,78.99
2019-05-12T09:25:25.432Z,78.79
2019-05-12T09:26:28.368Z,78.99
2019-05-12T09:27:25.315Z,78.79
2019-05-12T09:28:25.312Z,78.79
2019-05-12T09:29:25.365Z,78.70
2019-05-12T09:30:25.193Z,79.08
2019-05-12T09:31:29.325Z,78.99
2019-05-12T09:32:25.075Z,78.99
2019-05-12T09:33:27.635Z,78.89
2019-05-12T09:34:24.956Z,78.79
2019-05-12T09:35:28.760Z,78.60
2019-05-12T09:36:24.839Z,78.79
2019-05-12T09:37:24.725Z,78.89
2019-05-12T09:38:26.389Z,78.89
2019-05-12T09:39:24.602Z,78.99
2019-05-12T09:40:24.806Z,78.79
2019-05-12T09:41:24.482Z,78.79
2019-05-12T09:42:28.564Z,78.51
2019-05-12T09:43:24.479Z,78.60
2019-05-12T09:44:26.542Z,78.60
2019-05-12T09:45:24.361Z,78.74
2019-05-12T09:46:28.250Z,78.13
2019-05-12T09:47:27.611Z,78.22
2019-05-12T09:48:24.663Z,77.84
2019-05-12T09:49:30.923Z,76.98
2019-05-12T09:50:24.967Z,76.12
2019-05-12T09:51:24.487Z,76.03
2019-05-12T09:52:27.157Z,75.93
2019-05-12T09:53:23.902Z,75.26
2019-05-12T09:54:25.924Z,74.98
2019-05-12T09:55:24.796Z,75.74
2019-05-12T09:56:24.011Z,76.21
2019-05-12T09:57:23.923Z,76.60
2019-05-12T09:58:27.651Z,76.79
2019-05-12T09:59:25.779Z,77.08
2019-05-12T10:00:23.934Z,77.36
2019-05-12T10:01:24.172Z,77.45
2019-05-12T10:02:23.889Z,76.88
2019-05-12T10:03:24.212Z,76.40
2019-05-12T10:04:23.293Z,75.74
2019-05-12T10:05:23.172Z,75.74
2019-05-12T10:06:24.563Z,75.26
2019-05-12T10:07:23.054Z,75.16
2019-05-12T10:08:24.206Z,74.49
2019-05-12T10:09:24.460Z,74.69
2019-05-12T10:10:24.258Z,74.78
2019-05-12T10:11:23.720Z,74.30
2019-05-12T10:12:22.814Z,74.21
2019-05-12T10:13:28.203Z,74.21
2019-05-12T10:14:23.573Z,74.40
2019-05-12T10:15:24.783Z,74.30
2019-05-12T10:16:24.118Z,74.21
2019-05-12T10:17:28.412Z,74.40
2019-05-12T10:18:24.418Z,74.59
2019-05-12T10:19:23.577Z,74.40
2019-05-12T10:20:24.094Z,74.11
2019-05-12T10:21:23.772Z,74.02
2019-05-12T10:22:23.516Z,73.83
2019-05-12T10:23:25.149Z,74.02
2019-05-12T10:24:22.107Z,73.92
2019-05-12T10:25:23.201Z,74.11
2019-05-12T10:26:21.986Z,73.73
2019-05-12T10:27:27.225Z,73.83
2019-05-12T10:28:23.790Z,73.73
2019-05-12T10:29:24.192Z,72.97
2019-05-12T10:30:23.448Z,72.58
2019-05-12T10:31:24.087Z,72.20
2019-05-12T10:32:23.935Z,72.58
2019-05-12T10:33:23.260Z,72.58
2019-05-12T10:34:23.808Z,72.58
2019-05-12T10:35:24.550Z,72.58
2019-05-12T10:36:21.507Z,72.20
2019-05-12T10:37:25.402Z,72.78
2019-05-12T10:38:21.387Z,73.07
2019-05-12T10:39:21.277Z,73.35
2019-05-12T10:40:23.218Z,73.35
2019-05-12T10:41:21.151Z,73.16
2019-05-12T10:42:21.150Z,73.25
2019-05-12T10:43:21.034Z,72.78
2019-05-12T10:44:21.031Z,73.35
2019-05-12T10:45:21.429Z,72.87
2019-05-12T10:46:24.474Z,73.44
2019-05-12T10:47:20.794Z,72.78
2019-05-12T10:48:23.200Z,72.97
2019-05-12T10:49:20.675Z,72.87
2019-05-12T10:50:20.675Z,73.16
2019-05-12T10:51:20.674Z,72.68
2019-05-12T10:52:21.516Z,72.87
2019-05-12T10:53:20.555Z,73.07
2019-05-12T10:54:20.436Z,72.68
2019-05-12T10:55:20.436Z,72.58
2019-05-12T10:56:20.317Z,72.58
2019-05-12T10:57:20.333Z,72.78
2019-05-12T10:58:20.199Z,72.78
2019-05-12T10:59:30.165Z,72.87
2019-05-12T11:00:25.034Z,73.58
2019-05-12T11:01:20.078Z,73.35
2019-05-12T11:02:20.547Z,73.10
2019-05-12T11:03:19.959Z,73.07
2019-05-12T11:04:25.127Z,73.16
2019-05-12T11:05:22.970Z,73.54
2019-05-12T11:06:19.726Z,73.86
2019-05-12T11:07:23.023Z,74.02
2019-05-12T11:08:19.724Z,73.83
2019-05-12T11:09:21.298Z,73.73
2019-05-12T11:10:20.253Z,74.02
2019-05-12T11:11:19.483Z,73.54
2019-05-12T11:12:25.233Z,73.54
2019-05-12T11:13:19.365Z,73.86
2019-05-12T11:14:20.182Z,73.67
2019-05-12T11:15:19.249Z,73.77
2019-05-12T11:16:22.905Z,73.58
2019-05-12T11:17:19.128Z,73.77
2019-05-12T11:18:20.693Z,73.77
2019-05-12T11:19:19.044Z,73.35
2019-05-12T11:20:19.009Z,73.92
2019-05-12T11:21:18.892Z,74.34
2019-05-12T11:22:18.888Z,73.86
2019-05-12T11:23:18.889Z,73.67
2019-05-12T11:24:18.769Z,73.29
2019-05-12T11:25:18.768Z,72.72
2019-05-12T11:26:18.652Z,72.87
2019-05-12T11:27:18.649Z,73.39
2019-05-12T11:28:18.563Z,72.91
2019-05-12T11:29:18.536Z,72.72
2019-05-12T11:30:18.414Z,72.81
2019-05-12T11:31:18.415Z,73.19
2019-05-12T11:32:18.296Z,73.25
2019-05-12T11:33:18.377Z,73.19
2019-05-12T11:34:18.181Z,72.87
2019-05-12T11:35:18.174Z,73.29
2019-05-12T11:36:18.058Z,73.19
2019-05-12T11:37:18.054Z,73.35
2019-05-12T11:38:17.939Z,73.54
2019-05-12T11:39:17.941Z,73.63
2019-05-12T11:40:17.820Z,73.54
2019-05-12T11:41:20.236Z,73.63
2019-05-12T11:42:17.821Z,73.83
2019-05-12T11:43:17.700Z,74.11
2019-05-12T11:44:17.699Z,73.92
2019-05-12T11:45:17.581Z,73.73
2019-05-12T11:46:17.588Z,73.73
2019-05-12T11:47:24.391Z,74.05
2019-05-12T11:48:17.460Z,74.05
2019-05-12T11:49:21.613Z,73.83
2019-05-12T11:50:17.342Z,73.54
2019-05-12T11:51:20.760Z,73.73
2019-05-12T11:52:19.387Z,73.77
2019-05-12T11:53:17.106Z,73.77
2019-05-12T11:54:17.105Z,73.73
2019-05-12T11:55:21.364Z,73.86
2019-05-12T11:56:16.985Z,73.73
2019-05-12T11:57:20.080Z,73.83
2019-05-12T11:58:16.867Z,73.83
2019-05-12T11:59:16.867Z,73.83
2019-05-12T12:00:16.747Z,74.24
2019-05-12T12:01:16.746Z,73.77
2019-05-12T12:02:20.256Z,73.96
2019-05-12T12:03:18.001Z,73.96
2019-05-12T12:04:16.511Z,74.05
2019-05-12T12:05:16.509Z,73.86
2019-05-12T12:06:16.392Z,73.58
2019-05-12T12:07:16.403Z,73.19
2019-05-12T12:08:16.273Z,73.10
2019-05-12T12:09:18.905Z,73.10
2019-05-12T12:10:16.155Z,73.00
2019-05-12T12:11:21.977Z,73.29
2019-05-12T12:12:16.035Z,73.19
2019-05-12T12:13:19.253Z,73.19
2019-05-12T12:14:15.918Z,73.39
2019-05-12T12:15:20.592Z,73.39
2019-05-12T12:16:15.915Z,73.39
2019-05-12T12:17:15.797Z,72.81
2019-05-12T12:18:15.832Z,72.43
2019-05-12T12:19:15.677Z,72.91
2019-05-12T12:20:22.063Z,73.19
2019-05-12T12:21:15.561Z,73.39
2019-05-12T12:22:20.480Z,72.91
2019-05-12T12:23:15.442Z,72.33
2019-05-12T12:24:15.446Z,72.62
2019-05-12T12:25:15.711Z,72.33
2019-05-12T12:26:15.319Z,72.72
2019-05-12T12:27:15.203Z,72.14
2019-05-12T12:28:15.199Z,72.43
2019-05-12T12:29:15.084Z,72.43
2019-05-12T12:30:19.478Z,72.72
2019-05-12T12:31:15.081Z,72.53
2019-05-12T12:32:18.385Z,72.33
2019-05-12T12:33:14.963Z,72.14
2019-05-12T12:34:23.203Z,72.24
2019-05-12T12:35:15.116Z,72.24
2019-05-12T12:36:14.726Z,71.57
2019-05-12T12:37:19.031Z,72.43
2019-05-12T12:38:14.609Z,71.67
2019-05-12T12:39:14.607Z,71.67
2019-05-12T12:40:14.550Z,71.76
2019-05-12T12:41:14.486Z,71.95
2019-05-12T12:42:14.370Z,72.33
2019-05-12T12:43:14.367Z,71.86
2019-05-12T12:44:14.252Z,71.67
2019-05-12T12:45:14.249Z,71.67
2019-05-12T12:46:18.277Z,71.57
2019-05-12T12:47:14.133Z,71.57
2019-05-12T12:48:14.129Z,71.76
2019-05-12T12:49:14.114Z,71.38
2019-05-12T12:50:14.011Z,71.76
2019-05-12T12:51:17.311Z,71.57
2019-05-12T12:52:13.978Z,71.47